sensor_id;sensor_type;location;lat;lon;timestamp;P1;durP1;ratioP1;P2;durP2;ratioP2
33862;SDS011;20158;51.436;-2.742;2023-11-19T00:00:57;16.25;;;4.47;;
33862;SDS011;20158;51.436;-2.742;2023-11-19T00:03:23;23.55;;;7.05;;
33862;SDS011;20158;51.436;-2.742;2023-11-19T00:05:49;20.35;;;5.07;;
33862;SDS011;20158;51.436;-2.742;2023-11-19T00:08:16;20.70;;;5.38;;
33862;SDS011;20158;51.436;-2.742;2023-11-19T00:10:42;22.25;;;5.38;;
33862;SDS011;20158;51.436;-2.742;2023-11-19T00:13:08;18.38;;;4.68;;
33862;SDS011;20158;51.436;-2.742;2023-11-19T00:15:35;29.00;;;5.35;;
33862;SDS011;20158;51.436;-2.742;2023-11-19T00:18:01;18.98;;;5.45;;
33862;SDS011;20158;51.436;-2.742;2023-11-19T00:20:30;22.42;;;4.70;;
33862;SDS011;20158;51.436;-2.742;2023-11-19T00:22:56;23.63;;;6.45;;
33862;SDS011;20158;51.436;-2.742;2023-11-19T00:25:22;22.15;;;5.75;;
33862;SDS011;20158;51.436;-2.742;2023-11-19T00:27:48;17.55;;;4.90;;
33862;SDS011;20158;51.436;-2.742;2023-11-19T00:30:14;25.58;;;6.22;;
33862;SDS011;20158;51.436;-2.742;2023-11-19T00:32:41;17.65;;;6.82;;
33862;SDS011;20158;51.436;-2.742;2023-11-19T00:35:07;23.95;;;5.85;;
33862;SDS011;20158;51.436;-2.742;2023-11-19T00:37:36;20.33;;;5.47;;
33862;SDS011;20158;51.436;-2.742;2023-11-19T00:40:02;23.63;;;4.95;;
33862;SDS011;20158;51.436;-2.742;2023-11-19T00:42:32;21.50;;;5.75;;
33862;SDS011;20158;51.436;-2.742;2023-11-19T00:44:58;14.80;;;4.70;;
33862;SDS011;20158;51.436;-2.742;2023-11-19T00:47:24;19.52;;;5.95;;
33862;SDS011;20158;51.436;-2.742;2023-11-19T00:49:50;21.33;;;5.05;;
33862;SDS011;20158;51.436;-2.742;2023-11-19T00:52:17;19.83;;;4.15;;
33862;SDS011;20158;51.436;-2.742;2023-11-19T00:54:44;25.42;;;7.28;;
33862;SDS011;20158;51.436;-2.742;2023-11-19T00:57:10;23.80;;;6.07;;
33862;SDS011;20158;51.436;-2.742;2023-11-19T00:59:36;20.45;;;5.88;;
33862;SDS011;20158;51.436;-2.742;2023-11-19T01:02:03;18.98;;;4.72;;
33862;SDS011;20158;51.436;-2.742;2023-11-19T01:04:34;22.75;;;5.63;;
33862;SDS011;20158;51.436;-2.742;2023-11-19T01:07:01;20.52;;;5.68;;
33862;SDS011;20158;51.436;-2.742;2023-11-19T01:09:29;19.92;;;6.22;;
33862;SDS011;20158;51.436;-2.742;2023-11-19T01:12:00;22.20;;;6.50;;
33862;SDS011;20158;51.436;-2.742;2023-11-19T01:14:27;21.13;;;5.90;;
33862;SDS011;20158;51.436;-2.742;2023-11-19T01:16:53;23.05;;;6.03;;
33862;SDS011;20158;51.436;-2.742;2023-11-19T01:19:20;19.92;;;5.00;;
33862;SDS011;20158;51.436;-2.742;2023-11-19T01:21:47;19.25;;;4.40;;
33862;SDS011;20158;51.436;-2.742;2023-11-19T01:24:14;20.40;;;5.10;;
33862;SDS011;20158;51.436;-2.742;2023-11-19T01:26:40;21.23;;;5.90;;
33862;SDS011;20158;51.436;-2.742;2023-11-19T01:29:11;18.90;;;4.80;;
33862;SDS011;20158;51.436;-2.742;2023-11-19T01:31:40;20.52;;;4.50;;
33862;SDS011;20158;51.436;-2.742;2023-11-19T01:34:07;21.02;;;4.90;;
33862;SDS011;20158;51.436;-2.742;2023-11-19T01:36:34;16.75;;;5.18;;
33862;SDS011;20158;51.436;-2.742;2023-11-19T01:39:00;17.95;;;4.55;;
33862;SDS011;20158;51.436;-2.742;2023-11-19T01:41:26;20.73;;;5.15;;
33862;SDS011;20158;51.436;-2.742;2023-11-19T01:43:52;21.45;;;4.90;;
33862;SDS011;20158;51.436;-2.742;2023-11-19T01:46:19;18.90;;;4.55;;
33862;SDS011;20158;51.436;-2.742;2023-11-19T01:48:45;19.85;;;5.00;;
33862;SDS011;20158;51.436;-2.742;2023-11-19T01:51:12;16.60;;;4.53;;
33862;SDS011;20158;51.436;-2.742;2023-11-19T01:53:41;19.65;;;5.57;;
33862;SDS011;20158;51.436;-2.742;2023-11-19T01:56:09;25.88;;;6.93;;
33862;SDS011;20158;51.436;-2.742;2023-11-19T01:58:37;18.42;;;4.85;;
33862;SDS011;20158;51.436;-2.742;2023-11-19T02:01:06;21.70;;;4.32;;
33862;SDS011;20158;51.436;-2.742;2023-11-19T02:03:33;19.20;;;4.18;;
33862;SDS011;20158;51.436;-2.742;2023-11-19T02:06:00;24.73;;;5.32;;
33862;SDS011;20158;51.436;-2.742;2023-11-19T02:08:26;19.30;;;4.22;;
33862;SDS011;20158;51.436;-2.742;2023-11-19T02:10:52;19.30;;;4.55;;
33862;SDS011;20158;51.436;-2.742;2023-11-19T02:13:22;18.75;;;4.28;;
33862;SDS011;20158;51.436;-2.742;2023-11-19T02:15:48;27.67;;;7.07;;
33862;SDS011;20158;51.436;-2.742;2023-11-19T02:18:21;17.35;;;4.93;;
33862;SDS011;20158;51.436;-2.742;2023-11-19T02:20:55;20.67;;;5.82;;
33862;SDS011;20158;51.436;-2.742;2023-11-19T02:23:23;22.17;;;4.90;;
33862;SDS011;20158;51.436;-2.742;2023-11-19T02:25:54;21.55;;;6.15;;
33862;SDS011;20158;51.436;-2.742;2023-11-19T02:28:25;16.88;;;3.92;;
33862;SDS011;20158;51.436;-2.742;2023-11-19T02:30:52;17.73;;;5.20;;
33862;SDS011;20158;51.436;-2.742;2023-11-19T02:33:19;21.00;;;4.55;;
33862;SDS011;20158;51.436;-2.742;2023-11-19T02:35:47;30.88;;;6.28;;
33862;SDS011;20158;51.436;-2.742;2023-11-19T02:38:16;17.88;;;5.00;;
33862;SDS011;20158;51.436;-2.742;2023-11-19T02:40:43;20.27;;;4.45;;
33862;SDS011;20158;51.436;-2.742;2023-11-19T02:43:10;16.95;;;5.35;;
33862;SDS011;20158;51.436;-2.742;2023-11-19T02:45:36;17.60;;;4.57;;
33862;SDS011;20158;51.436;-2.742;2023-11-19T02:48:02;18.00;;;5.20;;
33862;SDS011;20158;51.436;-2.742;2023-11-19T02:50:31;23.13;;;4.75;;
33862;SDS011;20158;51.436;-2.742;2023-11-19T02:52:58;17.60;;;4.78;;
33862;SDS011;20158;51.436;-2.742;2023-11-19T02:55:24;20.60;;;4.88;;
33862;SDS011;20158;51.436;-2.742;2023-11-19T02:57:53;18.02;;;4.43;;
33862;SDS011;20158;51.436;-2.742;2023-11-19T03:00:19;17.38;;;4.75;;
33862;SDS011;20158;51.436;-2.742;2023-11-19T03:02:51;18.67;;;4.35;;
33862;SDS011;20158;51.436;-2.742;2023-11-19T03:05:35;15.95;;;4.38;;
33862;SDS011;20158;51.436;-2.742;2023-11-19T03:08:01;25.15;;;6.47;;
33862;SDS011;20158;51.436;-2.742;2023-11-19T03:10:28;13.73;;;3.50;;
33862;SDS011;20158;51.436;-2.742;2023-11-19T03:12:55;22.45;;;7.15;;
33862;SDS011;20158;51.436;-2.742;2023-11-19T03:15:23;19.00;;;4.97;;
33862;SDS011;20158;51.436;-2.742;2023-11-19T03:17:49;17.35;;;4.43;;
33862;SDS011;20158;51.436;-2.742;2023-11-19T03:20:19;17.73;;;4.45;;
33862;SDS011;20158;51.436;-2.742;2023-11-19T03:22:46;34.00;;;5.95;;
33862;SDS011;20158;51.436;-2.742;2023-11-19T03:25:14;20.60;;;5.55;;
33862;SDS011;20158;51.436;-2.742;2023-11-19T03:27:40;20.75;;;5.35;;
33862;SDS011;20158;51.436;-2.742;2023-11-19T03:30:09;17.73;;;4.30;;
33862;SDS011;20158;51.436;-2.742;2023-11-19T03:32:36;21.67;;;4.93;;
33862;SDS011;20158;51.436;-2.742;2023-11-19T03:35:02;20.25;;;6.07;;
33862;SDS011;20158;51.436;-2.742;2023-11-19T03:37:36;18.88;;;4.30;;
33862;SDS011;20158;51.436;-2.742;2023-11-19T03:40:03;17.63;;;4.35;;
33862;SDS011;20158;51.436;-2.742;2023-11-19T03:42:30;24.15;;;3.92;;
33862;SDS011;20158;51.436;-2.742;2023-11-19T03:44:57;16.88;;;5.72;;
33862;SDS011;20158;51.436;-2.742;2023-11-19T03:47:23;19.08;;;4.65;;
33862;SDS011;20158;51.436;-2.742;2023-11-19T03:49:50;22.00;;;5.75;;
33862;SDS011;20158;51.436;-2.742;2023-11-19T03:52:17;16.95;;;4.50;;
33862;SDS011;20158;51.436;-2.742;2023-11-19T03:54:44;22.05;;;5.35;;
33862;SDS011;20158;51.436;-2.742;2023-11-19T03:57:11;19.60;;;4.85;;
33862;SDS011;20158;51.436;-2.742;2023-11-19T03:59:39;21.40;;;4.15;;
33862;SDS011;20158;51.436;-2.742;2023-11-19T04:02:05;16.27;;;3.80;;
33862;SDS011;20158;51.436;-2.742;2023-11-19T04:04:32;10.82;;;3.85;;
33862;SDS011;20158;51.436;-2.742;2023-11-19T04:07:00;18.05;;;4.53;;
33862;SDS011;20158;51.436;-2.742;2023-11-19T04:09:28;19.05;;;4.85;;
33862;SDS011;20158;51.436;-2.742;2023-11-19T04:11:55;15.43;;;4.75;;
33862;SDS011;20158;51.436;-2.742;2023-11-19T04:14:22;18.10;;;6.60;;
33862;SDS011;20158;51.436;-2.742;2023-11-19T04:16:48;16.10;;;3.50;;
33862;SDS011;20158;51.436;-2.742;2023-11-19T04:19:15;16.77;;;3.88;;
33862;SDS011;20158;51.436;-2.742;2023-11-19T04:21:41;17.70;;;3.55;;
33862;SDS011;20158;51.436;-2.742;2023-11-19T04:24:11;15.95;;;4.35;;
33862;SDS011;20158;51.436;-2.742;2023-11-19T04:26:40;15.38;;;4.57;;
33862;SDS011;20158;51.436;-2.742;2023-11-19T04:29:09;18.15;;;4.18;;
33862;SDS011;20158;51.436;-2.742;2023-11-19T04:31:36;18.50;;;3.92;;
33862;SDS011;20158;51.436;-2.742;2023-11-19T04:34:02;14.95;;;3.25;;
33862;SDS011;20158;51.436;-2.742;2023-11-19T04:36:28;15.95;;;3.95;;
33862;SDS011;20158;51.436;-2.742;2023-11-19T04:38:55;14.05;;;3.88;;
33862;SDS011;20158;51.436;-2.742;2023-11-19T04:41:21;17.85;;;4.75;;
33862;SDS011;20158;51.436;-2.742;2023-11-19T04:43:46;22.40;;;5.90;;
33862;SDS011;20158;51.436;-2.742;2023-11-19T04:46:13;17.52;;;5.55;;
33862;SDS011;20158;51.436;-2.742;2023-11-19T04:48:40;15.13;;;3.60;;
33862;SDS011;20158;51.436;-2.742;2023-11-19T04:51:05;21.42;;;4.90;;
33862;SDS011;20158;51.436;-2.742;2023-11-19T04:53:31;19.23;;;5.03;;
33862;SDS011;20158;51.436;-2.742;2023-11-19T04:55:58;20.88;;;4.72;;
33862;SDS011;20158;51.436;-2.742;2023-11-19T04:58:24;17.55;;;4.28;;
33862;SDS011;20158;51.436;-2.742;2023-11-19T05:00:50;17.77;;;5.25;;
33862;SDS011;20158;51.436;-2.742;2023-11-19T05:03:16;17.15;;;5.13;;
33862;SDS011;20158;51.436;-2.742;2023-11-19T05:05:43;24.13;;;5.32;;
33862;SDS011;20158;51.436;-2.742;2023-11-19T05:08:09;19.95;;;4.72;;
33862;SDS011;20158;51.436;-2.742;2023-11-19T05:10:34;22.08;;;5.82;;
33862;SDS011;20158;51.436;-2.742;2023-11-19T05:13:02;18.13;;;4.47;;
33862;SDS011;20158;51.436;-2.742;2023-11-19T05:15:28;13.40;;;4.60;;
33862;SDS011;20158;51.436;-2.742;2023-11-19T05:17:54;19.27;;;4.93;;
33862;SDS011;20158;51.436;-2.742;2023-11-19T05:20:21;18.25;;;4.40;;
33862;SDS011;20158;51.436;-2.742;2023-11-19T05:22:46;16.90;;;4.80;;
33862;SDS011;20158;51.436;-2.742;2023-11-19T05:25:13;21.23;;;5.03;;
33862;SDS011;20158;51.436;-2.742;2023-11-19T05:27:39;19.10;;;4.20;;
33862;SDS011;20158;51.436;-2.742;2023-11-19T05:30:05;15.00;;;5.40;;
33862;SDS011;20158;51.436;-2.742;2023-11-19T05:32:36;18.63;;;4.20;;
33862;SDS011;20158;51.436;-2.742;2023-11-19T05:35:02;15.02;;;4.15;;
33862;SDS011;20158;51.436;-2.742;2023-11-19T05:37:29;15.88;;;3.78;;
33862;SDS011;20158;51.436;-2.742;2023-11-19T05:39:55;17.45;;;4.10;;
33862;SDS011;20158;51.436;-2.742;2023-11-19T05:42:21;17.23;;;4.28;;
33862;SDS011;20158;51.436;-2.742;2023-11-19T05:44:47;21.95;;;4.88;;
33862;SDS011;20158;51.436;-2.742;2023-11-19T05:47:13;15.57;;;3.60;;
33862;SDS011;20158;51.436;-2.742;2023-11-19T05:49:39;21.73;;;4.20;;
33862;SDS011;20158;51.436;-2.742;2023-11-19T05:52:05;21.50;;;4.82;;
33862;SDS011;20158;51.436;-2.742;2023-11-19T05:54:33;16.75;;;4.60;;
33862;SDS011;20158;51.436;-2.742;2023-11-19T05:57:04;14.73;;;4.00;;
33862;SDS011;20158;51.436;-2.742;2023-11-19T05:59:31;14.75;;;4.28;;
33862;SDS011;20158;51.436;-2.742;2023-11-19T06:02:01;19.40;;;4.32;;
33862;SDS011;20158;51.436;-2.742;2023-11-19T06:04:28;14.10;;;4.03;;
33862;SDS011;20158;51.436;-2.742;2023-11-19T06:06:54;18.77;;;4.20;;
33862;SDS011;20158;51.436;-2.742;2023-11-19T06:09:20;17.63;;;4.80;;
33862;SDS011;20158;51.436;-2.742;2023-11-19T06:11:48;17.15;;;3.38;;
33862;SDS011;20158;51.436;-2.742;2023-11-19T06:14:18;16.02;;;4.05;;
33862;SDS011;20158;51.436;-2.742;2023-11-19T06:16:44;16.98;;;5.00;;
33862;SDS011;20158;51.436;-2.742;2023-11-19T06:19:10;15.77;;;5.55;;
33862;SDS011;20158;51.436;-2.742;2023-11-19T06:21:37;15.77;;;4.00;;
33862;SDS011;20158;51.436;-2.742;2023-11-19T06:24:03;16.35;;;4.32;;
33862;SDS011;20158;51.436;-2.742;2023-11-19T06:26:29;20.00;;;4.93;;
33862;SDS011;20158;51.436;-2.742;2023-11-19T06:28:55;17.95;;;4.07;;
33862;SDS011;20158;51.436;-2.742;2023-11-19T06:31:23;14.25;;;3.85;;
33862;SDS011;20158;51.436;-2.742;2023-11-19T06:33:49;15.25;;;3.38;;
33862;SDS011;20158;51.436;-2.742;2023-11-19T06:36:15;14.43;;;3.72;;
33862;SDS011;20158;51.436;-2.742;2023-11-19T06:38:44;13.02;;;2.80;;
33862;SDS011;20158;51.436;-2.742;2023-11-19T06:41:09;16.02;;;3.35;;
33862;SDS011;20158;51.436;-2.742;2023-11-19T06:43:36;15.18;;;3.58;;
33862;SDS011;20158;51.436;-2.742;2023-11-19T06:46:02;15.60;;;4.78;;
33862;SDS011;20158;51.436;-2.742;2023-11-19T06:48:34;13.75;;;4.43;;
33862;SDS011;20158;51.436;-2.742;2023-11-19T06:51:00;16.98;;;3.58;;
33862;SDS011;20158;51.436;-2.742;2023-11-19T06:53:26;13.45;;;4.13;;
33862;SDS011;20158;51.436;-2.742;2023-11-19T06:55:53;16.85;;;4.13;;
33862;SDS011;20158;51.436;-2.742;2023-11-19T06:58:20;12.57;;;3.42;;
33862;SDS011;20158;51.436;-2.742;2023-11-19T07:00:45;13.93;;;3.28;;
33862;SDS011;20158;51.436;-2.742;2023-11-19T07:03:13;15.73;;;4.00;;
33862;SDS011;20158;51.436;-2.742;2023-11-19T07:05:39;19.77;;;4.25;;
33862;SDS011;20158;51.436;-2.742;2023-11-19T07:08:06;15.73;;;5.60;;
33862;SDS011;20158;51.436;-2.742;2023-11-19T07:10:35;16.42;;;5.13;;
33862;SDS011;20158;51.436;-2.742;2023-11-19T07:13:01;14.30;;;3.20;;
33862;SDS011;20158;51.436;-2.742;2023-11-19T07:15:27;16.70;;;4.68;;
33862;SDS011;20158;51.436;-2.742;2023-11-19T07:17:54;13.23;;;3.38;;
33862;SDS011;20158;51.436;-2.742;2023-11-19T07:20:20;14.38;;;3.55;;
33862;SDS011;20158;51.436;-2.742;2023-11-19T07:22:46;13.13;;;3.97;;
33862;SDS011;20158;51.436;-2.742;2023-11-19T07:25:13;13.32;;;3.20;;
33862;SDS011;20158;51.436;-2.742;2023-11-19T07:27:39;13.15;;;3.50;;
33862;SDS011;20158;51.436;-2.742;2023-11-19T07:30:06;10.32;;;2.92;;
33862;SDS011;20158;51.436;-2.742;2023-11-19T07:32:33;14.43;;;3.33;;
33862;SDS011;20158;51.436;-2.742;2023-11-19T07:35:05;15.38;;;3.05;;
33862;SDS011;20158;51.436;-2.742;2023-11-19T07:37:32;14.98;;;3.58;;
33862;SDS011;20158;51.436;-2.742;2023-11-19T07:39:59;14.82;;;4.15;;
33862;SDS011;20158;51.436;-2.742;2023-11-19T07:42:25;19.00;;;4.93;;
33862;SDS011;20158;51.436;-2.742;2023-11-19T07:44:52;14.52;;;3.10;;
33862;SDS011;20158;51.436;-2.742;2023-11-19T07:47:21;14.32;;;2.78;;
33862;SDS011;20158;51.436;-2.742;2023-11-19T07:49:49;15.18;;;3.03;;
33862;SDS011;20158;51.436;-2.742;2023-11-19T07:52:16;11.82;;;3.42;;
33862;SDS011;20158;51.436;-2.742;2023-11-19T07:54:42;37.95;;;6.40;;
33862;SDS011;20158;51.436;-2.742;2023-11-19T07:57:09;41.88;;;9.75;;
33862;SDS011;20158;51.436;-2.742;2023-11-19T07:59:35;27.15;;;8.30;;
33862;SDS011;20158;51.436;-2.742;2023-11-19T08:02:01;25.88;;;5.57;;
33862;SDS011;20158;51.436;-2.742;2023-11-19T08:04:29;18.73;;;4.93;;
33862;SDS011;20158;51.436;-2.742;2023-11-19T08:06:56;16.17;;;4.80;;
33862;SDS011;20158;51.436;-2.742;2023-11-19T08:09:22;22.85;;;4.28;;
33862;SDS011;20158;51.436;-2.742;2023-11-19T08:11:48;15.00;;;4.10;;
33862;SDS011;20158;51.436;-2.742;2023-11-19T08:14:15;13.40;;;4.45;;
33862;SDS011;20158;51.436;-2.742;2023-11-19T08:16:41;21.15;;;5.03;;
33862;SDS011;20158;51.436;-2.742;2023-11-19T08:19:10;20.95;;;4.68;;
33862;SDS011;20158;51.436;-2.742;2023-11-19T08:21:37;17.20;;;3.50;;
33862;SDS011;20158;51.436;-2.742;2023-11-19T08:24:03;21.33;;;5.13;;
33862;SDS011;20158;51.436;-2.742;2023-11-19T08:26:30;17.88;;;4.55;;
33862;SDS011;20158;51.436;-2.742;2023-11-19T08:28:56;17.60;;;5.00;;
33862;SDS011;20158;51.436;-2.742;2023-11-19T08:31:24;22.23;;;5.55;;
33862;SDS011;20158;51.436;-2.742;2023-11-19T08:33:51;19.88;;;5.47;;
33862;SDS011;20158;51.436;-2.742;2023-11-19T08:36:17;15.23;;;4.35;;
33862;SDS011;20158;51.436;-2.742;2023-11-19T08:38:44;13.43;;;3.78;;
33862;SDS011;20158;51.436;-2.742;2023-11-19T08:41:10;13.07;;;4.30;;
33862;SDS011;20158;51.436;-2.742;2023-11-19T08:43:37;16.60;;;4.28;;
33862;SDS011;20158;51.436;-2.742;2023-11-19T08:46:04;17.83;;;4.30;;
33862;SDS011;20158;51.436;-2.742;2023-11-19T08:48:34;12.38;;;5.00;;
33862;SDS011;20158;51.436;-2.742;2023-11-19T08:51:01;20.90;;;5.03;;
33862;SDS011;20158;51.436;-2.742;2023-11-19T08:53:27;14.45;;;4.55;;
33862;SDS011;20158;51.436;-2.742;2023-11-19T08:55:53;19.45;;;4.40;;
33862;SDS011;20158;51.436;-2.742;2023-11-19T08:58:20;15.05;;;3.80;;
33862;SDS011;20158;51.436;-2.742;2023-11-19T09:00:47;18.15;;;4.38;;
33862;SDS011;20158;51.436;-2.742;2023-11-19T09:03:16;19.60;;;5.25;;
33862;SDS011;20158;51.436;-2.742;2023-11-19T09:05:46;14.52;;;3.10;;
33862;SDS011;20158;51.436;-2.742;2023-11-19T09:08:12;21.05;;;5.30;;
33862;SDS011;20158;51.436;-2.742;2023-11-19T09:10:39;21.33;;;5.72;;
33862;SDS011;20158;51.436;-2.742;2023-11-19T09:13:05;11.88;;;3.88;;
33862;SDS011;20158;51.436;-2.742;2023-11-19T09:15:34;19.52;;;4.63;;
33862;SDS011;20158;51.436;-2.742;2023-11-19T09:18:00;16.63;;;3.55;;
33862;SDS011;20158;51.436;-2.742;2023-11-19T09:20:27;12.45;;;3.38;;
33862;SDS011;20158;51.436;-2.742;2023-11-19T09:22:56;15.43;;;4.10;;
33862;SDS011;20158;51.436;-2.742;2023-11-19T09:25:28;16.25;;;3.65;;
33862;SDS011;20158;51.436;-2.742;2023-11-19T09:27:55;14.68;;;3.97;;
33862;SDS011;20158;51.436;-2.742;2023-11-19T09:30:21;15.50;;;3.42;;
33862;SDS011;20158;51.436;-2.742;2023-11-19T09:32:48;11.73;;;3.40;;
33862;SDS011;20158;51.436;-2.742;2023-11-19T09:35:15;12.02;;;3.70;;
33862;SDS011;20158;51.436;-2.742;2023-11-19T09:37:43;16.58;;;3.85;;
33862;SDS011;20158;51.436;-2.742;2023-11-19T09:40:09;12.32;;;3.00;;
33862;SDS011;20158;51.436;-2.742;2023-11-19T09:42:42;12.98;;;5.03;;
33862;SDS011;20158;51.436;-2.742;2023-11-19T09:45:15;15.77;;;4.78;;
33862;SDS011;20158;51.436;-2.742;2023-11-19T09:47:43;13.93;;;3.38;;
33862;SDS011;20158;51.436;-2.742;2023-11-19T09:50:14;17.40;;;6.32;;
33862;SDS011;20158;51.436;-2.742;2023-11-19T09:52:46;14.30;;;3.92;;
33862;SDS011;20158;51.436;-2.742;2023-11-19T09:55:13;13.45;;;3.83;;
33862;SDS011;20158;51.436;-2.742;2023-11-19T09:57:43;11.50;;;3.42;;
33862;SDS011;20158;51.436;-2.742;2023-11-19T10:00:12;9.32;;;2.78;;
33862;SDS011;20158;51.436;-2.742;2023-11-19T10:02:41;12.70;;;3.42;;
33862;SDS011;20158;51.436;-2.742;2023-11-19T10:05:11;14.10;;;3.35;;
33862;SDS011;20158;51.436;-2.742;2023-11-19T10:07:38;15.25;;;3.70;;
33862;SDS011;20158;51.436;-2.742;2023-11-19T10:10:05;15.63;;;4.38;;
33862;SDS011;20158;51.436;-2.742;2023-11-19T10:12:33;13.70;;;3.53;;
33862;SDS011;20158;51.436;-2.742;2023-11-19T10:14:59;17.13;;;3.47;;
33862;SDS011;20158;51.436;-2.742;2023-11-19T10:17:33;13.05;;;3.70;;
33862;SDS011;20158;51.436;-2.742;2023-11-19T10:20:00;17.05;;;4.20;;
33862;SDS011;20158;51.436;-2.742;2023-11-19T10:22:27;17.90;;;4.97;;
33862;SDS011;20158;51.436;-2.742;2023-11-19T10:24:53;14.93;;;4.45;;
33862;SDS011;20158;51.436;-2.742;2023-11-19T10:27:20;11.98;;;3.38;;
33862;SDS011;20158;51.436;-2.742;2023-11-19T10:29:46;12.13;;;4.03;;
33862;SDS011;20158;51.436;-2.742;2023-11-19T10:32:14;19.77;;;3.70;;
33862;SDS011;20158;51.436;-2.742;2023-11-19T10:34:43;11.63;;;2.70;;
33862;SDS011;20158;51.436;-2.742;2023-11-19T10:37:09;13.25;;;3.30;;
33862;SDS011;20158;51.436;-2.742;2023-11-19T10:39:56;17.17;;;3.35;;
33862;SDS011;20158;51.436;-2.742;2023-11-19T10:42:22;11.13;;;3.85;;
33862;SDS011;20158;51.436;-2.742;2023-11-19T10:44:52;8.25;;;3.63;;
33862;SDS011;20158;51.436;-2.742;2023-11-19T10:47:19;14.50;;;3.80;;
33862;SDS011;20158;51.436;-2.742;2023-11-19T10:49:46;10.98;;;3.13;;
33862;SDS011;20158;51.436;-2.742;2023-11-19T10:52:14;13.68;;;4.07;;
33862;SDS011;20158;51.436;-2.742;2023-11-19T10:54:45;9.33;;;2.83;;
33862;SDS011;20158;51.436;-2.742;2023-11-19T10:57:20;9.65;;;2.42;;
33862;SDS011;20158;51.436;-2.742;2023-11-19T10:59:52;9.68;;;2.88;;
33862;SDS011;20158;51.436;-2.742;2023-11-19T11:02:27;8.80;;;2.42;;
33862;SDS011;20158;51.436;-2.742;2023-11-19T11:04:57;6.40;;;2.05;;
33862;SDS011;20158;51.436;-2.742;2023-11-19T11:07:24;7.88;;;2.58;;
33862;SDS011;20158;51.436;-2.742;2023-11-19T11:09:52;10.45;;;2.45;;
33862;SDS011;20158;51.436;-2.742;2023-11-19T11:12:21;8.05;;;2.65;;
33862;SDS011;20158;51.436;-2.742;2023-11-19T11:14:52;7.15;;;3.03;;
33862;SDS011;20158;51.436;-2.742;2023-11-19T11:17:21;8.65;;;2.47;;
33862;SDS011;20158;51.436;-2.742;2023-11-19T11:19:51;10.40;;;2.35;;
33862;SDS011;20158;51.436;-2.742;2023-11-19T11:22:18;10.45;;;3.20;;
33862;SDS011;20158;51.436;-2.742;2023-11-19T11:24:56;7.18;;;2.30;;
33862;SDS011;20158;51.436;-2.742;2023-11-19T11:36:10;7.70;;;2.33;;
33862;SDS011;20158;51.436;-2.742;2023-11-19T11:38:47;11.65;;;2.75;;
33862;SDS011;20158;51.436;-2.742;2023-11-19T11:41:21;8.63;;;2.50;;
33862;SDS011;20158;51.436;-2.742;2023-11-19T11:43:50;9.75;;;2.60;;
33862;SDS011;20158;51.436;-2.742;2023-11-19T11:49:01;10.38;;;3.35;;
33862;SDS011;20158;51.436;-2.742;2023-11-19T11:57:08;7.40;;;2.30;;
33862;SDS011;20158;51.436;-2.742;2023-11-19T12:02:09;6.53;;;2.47;;
33862;SDS011;20158;51.436;-2.742;2023-11-19T12:04:36;6.18;;;2.13;;
33862;SDS011;20158;51.436;-2.742;2023-11-19T12:07:16;6.72;;;1.98;;
33862;SDS011;20158;51.436;-2.742;2023-11-19T12:09:47;5.88;;;1.65;;
33862;SDS011;20158;51.436;-2.742;2023-11-19T12:12:18;5.30;;;2.30;;
33862;SDS011;20158;51.436;-2.742;2023-11-19T12:17:35;7.72;;;1.83;;
33862;SDS011;20158;51.436;-2.742;2023-11-19T12:20:06;8.10;;;1.67;;
33862;SDS011;20158;51.436;-2.742;2023-11-19T12:22:37;8.63;;;2.78;;
33862;SDS011;20158;51.436;-2.742;2023-11-19T12:25:08;6.15;;;1.40;;
33862;SDS011;20158;51.436;-2.742;2023-11-19T12:27:44;4.40;;;1.83;;
33862;SDS011;20158;51.436;-2.742;2023-11-19T12:30:11;5.63;;;1.77;;
33862;SDS011;20158;51.436;-2.742;2023-11-19T12:32:42;8.45;;;1.80;;
33862;SDS011;20158;51.436;-2.742;2023-11-19T12:35:10;93.70;;;58.38;;
33862;SDS011;20158;51.436;-2.742;2023-11-19T12:37:44;67.07;;;42.00;;
33862;SDS011;20158;51.436;-2.742;2023-11-19T12:40:13;61.00;;;41.38;;
33862;SDS011;20158;51.436;-2.742;2023-11-19T12:42:41;55.08;;;37.75;;
33862;SDS011;20158;51.436;-2.742;2023-11-19T12:45:08;52.28;;;35.15;;
33862;SDS011;20158;51.436;-2.742;2023-11-19T12:47:38;53.45;;;33.67;;
33862;SDS011;20158;51.436;-2.742;2023-11-19T12:50:09;50.55;;;31.30;;
33862;SDS011;20158;51.436;-2.742;2023-11-19T12:52:36;44.13;;;28.75;;
33862;SDS011;20158;51.436;-2.742;2023-11-19T12:55:04;42.70;;;28.75;;
33862;SDS011;20158;51.436;-2.742;2023-11-19T12:57:38;43.50;;;26.55;;
33862;SDS011;20158;51.436;-2.742;2023-11-19T13:00:06;45.28;;;29.35;;
33862;SDS011;20158;51.436;-2.742;2023-11-19T13:02:46;43.05;;;28.05;;
33862;SDS011;20158;51.436;-2.742;2023-11-19T13:05:27;44.75;;;27.15;;
33862;SDS011;20158;51.436;-2.742;2023-11-19T13:08:08;40.85;;;27.02;;
33862;SDS011;20158;51.436;-2.742;2023-11-19T13:11:00;40.03;;;24.85;;
33862;SDS011;20158;51.436;-2.742;2023-11-19T13:13:25;41.65;;;24.20;;
33862;SDS011;20158;51.436;-2.742;2023-11-19T13:15:52;40.95;;;26.58;;
33862;SDS011;20158;51.436;-2.742;2023-11-19T13:18:18;39.08;;;24.45;;
33862;SDS011;20158;51.436;-2.742;2023-11-19T13:20:44;43.72;;;24.63;;
33862;SDS011;20158;51.436;-2.742;2023-11-19T13:23:11;31.15;;;18.70;;
33862;SDS011;20158;51.436;-2.742;2023-11-19T13:25:40;33.67;;;20.38;;
33862;SDS011;20158;51.436;-2.742;2023-11-19T13:28:09;35.15;;;20.95;;
33862;SDS011;20158;51.436;-2.742;2023-11-19T13:30:36;33.35;;;20.30;;
33862;SDS011;20158;51.436;-2.742;2023-11-19T13:33:02;31.88;;;19.48;;
33862;SDS011;20158;51.436;-2.742;2023-11-19T13:35:29;36.08;;;18.17;;
33862;SDS011;20158;51.436;-2.742;2023-11-19T13:37:58;32.75;;;19.60;;
33862;SDS011;20158;51.436;-2.742;2023-11-19T13:40:27;32.70;;;19.20;;
33862;SDS011;20158;51.436;-2.742;2023-11-19T13:42:54;32.80;;;17.75;;
33862;SDS011;20158;51.436;-2.742;2023-11-19T13:45:20;32.65;;;17.70;;
33862;SDS011;20158;51.436;-2.742;2023-11-19T13:47:47;34.35;;;16.85;;
33862;SDS011;20158;51.436;-2.742;2023-11-19T13:50:14;33.55;;;19.40;;
33862;SDS011;20158;51.436;-2.742;2023-11-19T13:52:42;29.75;;;16.70;;
33862;SDS011;20158;51.436;-2.742;2023-11-19T13:55:11;27.13;;;14.98;;
33862;SDS011;20158;51.436;-2.742;2023-11-19T13:57:41;34.03;;;16.50;;
33862;SDS011;20158;51.436;-2.742;2023-11-19T14:00:08;26.88;;;15.60;;
33862;SDS011;20158;51.436;-2.742;2023-11-19T14:02:42;33.05;;;15.82;;
33862;SDS011;20158;51.436;-2.742;2023-11-19T14:05:08;28.05;;;14.75;;
33862;SDS011;20158;51.436;-2.742;2023-11-19T14:07:36;28.15;;;14.60;;
33862;SDS011;20158;51.436;-2.742;2023-11-19T14:10:06;25.08;;;13.20;;
33862;SDS011;20158;51.436;-2.742;2023-11-19T14:12:37;24.88;;;12.40;;
33862;SDS011;20158;51.436;-2.742;2023-11-19T14:15:04;18.63;;;11.60;;
33862;SDS011;20158;51.436;-2.742;2023-11-19T14:17:38;20.77;;;11.77;;
33862;SDS011;20158;51.436;-2.742;2023-11-19T14:20:05;21.27;;;11.85;;
33862;SDS011;20158;51.436;-2.742;2023-11-19T14:22:41;20.73;;;9.60;;
33862;SDS011;20158;51.436;-2.742;2023-11-19T14:25:10;20.65;;;9.80;;
33862;SDS011;20158;51.436;-2.742;2023-11-19T14:27:37;21.17;;;10.38;;
33862;SDS011;20158;51.436;-2.742;2023-11-19T14:30:07;23.73;;;11.18;;
33862;SDS011;20158;51.436;-2.742;2023-11-19T14:32:39;23.08;;;9.60;;
33862;SDS011;20158;51.436;-2.742;2023-11-19T14:35:10;18.75;;;10.15;;
33862;SDS011;20158;51.436;-2.742;2023-11-19T14:37:37;18.63;;;9.60;;
33862;SDS011;20158;51.436;-2.742;2023-11-19T14:40:03;24.27;;;11.00;;
33862;SDS011;20158;51.436;-2.742;2023-11-19T14:42:31;19.30;;;10.90;;
33862;SDS011;20158;51.436;-2.742;2023-11-19T14:44:58;17.88;;;9.85;;
33862;SDS011;20158;51.436;-2.742;2023-11-19T14:47:24;24.05;;;11.30;;